sensor_id;sensor_type;location;lat;lon;timestamp;pressure;altitude;pressure_sealevel;temperature;humidity
55540;BME280;41384;51.418;7.286;2023-03-14T00:01:08;97397.47;;;10.75;94.20
55540;BME280;41384;51.418;7.286;2023-03-14T00:03:33;97386.41;;;10.73;93.98
55540;BME280;41384;51.418;7.286;2023-03-14T00:06:02;97386.94;;;10.75;93.55
55540;BME280;41384;51.418;7.286;2023-03-14T00:08:28;97370.31;;;10.75;92.71
55540;BME280;41384;51.418;7.286;2023-03-14T00:10:53;97360.03;;;10.73;93.28
55540;BME280;41384;51.418;7.286;2023-03-14T00:13:18;97354.19;;;10.82;92.82
55540;BME280;41384;51.418;7.286;2023-03-14T00:15:44;97339.19;;;10.77;92.64
55540;BME280;41384;51.418;7.286;2023-03-14T00:18:09;97333.38;;;10.75;92.58
55540;BME280;41384;51.418;7.286;2023-03-14T00:20:34;97342.06;;;10.75;92.48
55540;BME280;41384;51.418;7.286;2023-03-14T00:22:59;97329.69;;;10.71;92.15
55540;BME280;41384;51.418;7.286;2023-03-14T00:25:25;97322.03;;;10.74;92.04
55540;BME280;41384;51.418;7.286;2023-03-14T00:27:51;97337.31;;;10.77;92.07
55540;BME280;41384;51.418;7.286;2023-03-14T00:30:17;97347.38;;;10.70;91.75
55540;BME280;41384;51.418;7.286;2023-03-14T00:32:42;97357.66;;;10.72;92.08
55540;BME280;41384;51.418;7.286;2023-03-14T00:35:08;97374.81;;;10.69;92.22
55540;BME280;41384;51.418;7.286;2023-03-14T00:37:33;97387.47;;;10.67;91.42
55540;BME280;41384;51.418;7.286;2023-03-14T00:39:58;97382.47;;;10.71;92.08
55540;BME280;41384;51.418;7.286;2023-03-14T00:42:24;97393.78;;;10.71;91.98
55540;BME280;41384;51.418;7.286;2023-03-14T00:44:49;97388.81;;;10.70;92.40
55540;BME280;41384;51.418;7.286;2023-03-14T00:47:14;97386.41;;;10.73;91.56
55540;BME280;41384;51.418;7.286;2023-03-14T00:49:39;97374.03;;;10.69;92.17
55540;BME280;41384;51.418;7.286;2023-03-14T00:52:05;97367.94;;;10.68;92.11
55540;BME280;41384;51.418;7.286;2023-03-14T00:54:30;97366.63;;;10.71;91.98
55540;BME280;41384;51.418;7.286;2023-03-14T00:56:55;97359.78;;;10.75;91.56
55540;BME280;41384;51.418;7.286;2023-03-14T00:59:21;97356.31;;;10.79;91.88
55540;BME280;41384;51.418;7.286;2023-03-14T01:01:46;97346.81;;;10.78;91.15
55540;BME280;41384;51.418;7.286;2023-03-14T01:04:11;97369.50;;;10.74;92.63
55540;BME280;41384;51.418;7.286;2023-03-14T01:06:36;97386.94;;;10.75;98.18
55540;BME280;41384;51.418;7.286;2023-03-14T01:09:02;97398.31;;;10.65;100.00
55540;BME280;41384;51.418;7.286;2023-03-14T01:11:33;97413.88;;;10.57;100.00
55540;BME280;41384;51.418;7.286;2023-03-14T01:13:59;97442.59;;;10.43;100.00
55540;BME280;41384;51.418;7.286;2023-03-14T01:16:27;97445.97;;;10.12;100.00
55540;BME280;41384;51.418;7.286;2023-03-14T01:18:52;97443.84;;;10.09;100.00
55540;BME280;41384;51.418;7.286;2023-03-14T01:21:21;97442.28;;;10.08;100.00
55540;BME280;41384;51.418;7.286;2023-03-14T01:23:48;97426.22;;;10.04;100.00
55540;BME280;41384;51.418;7.286;2023-03-14T01:26:15;97425.34;;;9.73;100.00
55540;BME280;41384;51.418;7.286;2023-03-14T01:28:41;97414.59;;;9.95;100.00
55540;BME280;41384;51.418;7.286;2023-03-14T01:31:09;97423.28;;;10.01;100.00
55540;BME280;41384;51.418;7.286;2023-03-14T01:33:35;97418.00;;;9.85;100.00
55540;BME280;41384;51.418;7.286;2023-03-14T01:36:01;97415.38;;;9.90;100.00
55540;BME280;41384;51.418;7.286;2023-03-14T01:38:29;97408.50;;;9.79;100.00
55540;BME280;41384;51.418;7.286;2023-03-14T01:40:55;97402.44;;;9.78;100.00
55540;BME280;41384;51.418;7.286;2023-03-14T01:43:20;97399.53;;;9.75;100.00
55540;BME280;41384;51.418;7.286;2023-03-14T01:46:25;97388.47;;;9.78;100.00
55540;BME280;41384;51.418;7.286;2023-03-14T01:49:03;97386.63;;;9.73;100.00
55540;BME280;41384;51.418;7.286;2023-03-14T01:54:05;97374.22;;;9.58;100.00
55540;BME280;41384;51.418;7.286;2023-03-14T01:56:31;97375.28;;;9.68;100.00
55540;BME280;41384;51.418;7.286;2023-03-14T01:58:57;97373.13;;;9.49;100.00
55540;BME280;41384;51.418;7.286;2023-03-14T02:01:24;97371.06;;;9.72;100.00
55540;BME280;41384;51.418;7.286;2023-03-14T02:03:55;97366.34;;;9.69;100.00
55540;BME280;41384;51.418;7.286;2023-03-14T02:06:24;97376.06;;;9.68;100.00
55540;BME280;41384;51.418;7.286;2023-03-14T02:08:52;97370.03;;;9.78;100.00
55540;BME280;41384;51.418;7.286;2023-03-14T02:11:18;97362.66;;;9.70;100.00
55540;BME280;41384;51.418;7.286;2023-03-14T02:13:44;97350.72;;;9.46;100.00
55540;BME280;41384;51.418;7.286;2023-03-14T02:16:09;97354.72;;;9.54;100.00
55540;BME280;41384;51.418;7.286;2023-03-14T02:18:35;97362.63;;;9.54;100.00
55540;BME280;41384;51.418;7.286;2023-03-14T02:21:07;97363.69;;;9.69;100.00
55540;BME280;41384;51.418;7.286;2023-03-14T02:26:26;97360.78;;;9.60;100.00
55540;BME280;41384;51.418;7.286;2023-03-14T02:28:53;97361.28;;;9.57;100.00
55540;BME280;41384;51.418;7.286;2023-03-14T02:31:18;97351.06;;;9.66;100.00
55540;BME280;41384;51.418;7.286;2023-03-14T02:33:46;97351.03;;;9.60;100.00
55540;BME280;41384;51.418;7.286;2023-03-14T02:36:14;97346.81;;;9.59;100.00
55540;BME280;41384;51.418;7.286;2023-03-14T02:39:06;97348.13;;;9.57;100.00
55540;BME280;41384;51.418;7.286;2023-03-14T02:41:33;97348.66;;;9.69;100.00
55540;BME280;41384;51.418;7.286;2023-03-14T02:43:58;97369.22;;;9.67;100.00
55540;BME280;41384;51.418;7.286;2023-03-14T02:46:24;97364.22;;;9.60;100.00
55540;BME280;41384;51.418;7.286;2023-03-14T02:49:00;97358.97;;;9.71;100.00
55540;BME280;41384;51.418;7.286;2023-03-14T02:51:27;97348.94;;;9.68;100.00
55540;BME280;41384;51.418;7.286;2023-03-14T02:53:53;97359.25;;;9.80;100.00
55540;BME280;41384;51.418;7.286;2023-03-14T02:56:18;97357.91;;;9.67;100.00
55540;BME280;41384;51.418;7.286;2023-03-14T02:58:43;97355.81;;;9.74;100.00
55540;BME280;41384;51.418;7.286;2023-03-14T03:01:08;97350.53;;;9.79;100.00
55540;BME280;41384;51.418;7.286;2023-03-14T03:03:34;97346.84;;;9.70;100.00
55540;BME280;41384;51.418;7.286;2023-03-14T03:05:59;97344.44;;;9.68;100.00
55540;BME280;41384;51.418;7.286;2023-03-14T03:08:26;97348.38;;;9.50;100.00
55540;BME280;41384;51.418;7.286;2023-03-14T03:10:52;97350.00;;;9.72;100.00
55540;BME280;41384;51.418;7.286;2023-03-14T03:13:18;97334.72;;;9.63;100.00
55540;BME280;41384;51.418;7.286;2023-03-14T03:15:43;97339.47;;;9.77;100.00
55540;BME280;41384;51.418;7.286;2023-03-14T03:18:09;97320.50;;;9.75;100.00
55540;BME280;41384;51.418;7.286;2023-03-14T03:20:34;97335.25;;;9.71;100.00
55540;BME280;41384;51.418;7.286;2023-03-14T03:22:59;97330.75;;;9.66;100.00
55540;BME280;41384;51.418;7.286;2023-03-14T03:25:25;97331.56;;;9.67;100.00
55540;BME280;41384;51.418;7.286;2023-03-14T03:27:50;97323.66;;;9.61;100.00
55540;BME280;41384;51.418;7.286;2023-03-14T03:30:16;97318.16;;;9.73;100.00
55540;BME280;41384;51.418;7.286;2023-03-14T03:32:41;97317.88;;;9.70;100.00
55540;BME280;41384;51.418;7.286;2023-03-14T03:35:07;97311.31;;;9.77;100.00
55540;BME280;41384;51.418;7.286;2023-03-14T03:37:33;97312.34;;;9.82;100.00
55540;BME280;41384;51.418;7.286;2023-03-14T03:39:58;97309.97;;;9.70;100.00
55540;BME280;41384;51.418;7.286;2023-03-14T03:42:26;97313.94;;;9.83;100.00
55540;BME280;41384;51.418;7.286;2023-03-14T03:44:51;97322.09;;;9.71;100.00
55540;BME280;41384;51.418;7.286;2023-03-14T03:47:17;97321.25;;;9.60;100.00
55540;BME280;41384;51.418;7.286;2023-03-14T03:49:42;97317.34;;;9.78;100.00
55540;BME280;41384;51.418;7.286;2023-03-14T03:52:07;97313.94;;;9.88;100.00
55540;BME280;41384;51.418;7.286;2023-03-14T03:54:34;97331.56;;;9.77;100.00
55540;BME280;41384;51.418;7.286;2023-03-14T03:56:59;97323.16;;;9.80;100.00
55540;BME280;41384;51.418;7.286;2023-03-14T03:59:24;97327.59;;;9.59;100.00
55540;BME280;41384;51.418;7.286;2023-03-14T04:01:49;97326.81;;;9.63;100.00
55540;BME280;41384;51.418;7.286;2023-03-14T04:04:15;97329.97;;;9.55;100.00
55540;BME280;41384;51.418;7.286;2023-03-14T04:06:40;97315.47;;;9.58;100.00
55540;BME280;41384;51.418;7.286;2023-03-14T04:09:07;97306.50;;;9.54;100.00
55540;BME280;41384;51.418;7.286;2023-03-14T04:11:32;97329.44;;;9.53;100.00
55540;BME280;41384;51.418;7.286;2023-03-14T04:13:58;97314.66;;;9.37;100.00
55540;BME280;41384;51.418;7.286;2023-03-14T04:16:24;97302.81;;;9.39;100.00
55540;BME280;41384;51.418;7.286;2023-03-14T04:18:50;97312.81;;;9.42;100.00
55540;BME280;41384;51.418;7.286;2023-03-14T04:21:16;97309.63;;;9.30;100.00
55540;BME280;41384;51.418;7.286;2023-03-14T04:23:42;97301.22;;;9.38;100.00
55540;BME280;41384;51.418;7.286;2023-03-14T04:26:07;97304.66;;;9.33;100.00
55540;BME280;41384;51.418;7.286;2023-03-14T04:28:32;97306.47;;;9.33;100.00
55540;BME280;41384;51.418;7.286;2023-03-14T04:30:58;97289.63;;;9.29;100.00
55540;BME280;41384;51.418;7.286;2023-03-14T04:33:24;97304.16;;;9.47;100.00
55540;BME280;41384;51.418;7.286;2023-03-14T04:35:53;97311.44;;;9.24;100.00
55540;BME280;41384;51.418;7.286;2023-03-14T04:38:19;97308.03;;;9.18;100.00
55540;BME280;41384;51.418;7.286;2023-03-14T04:40:44;97312.44;;;9.02;100.00
55540;BME280;41384;51.418;7.286;2023-03-14T04:43:10;97317.72;;;9.13;100.00
55540;BME280;41384;51.418;7.286;2023-03-14T04:45:35;97307.47;;;9.11;100.00
55540;BME280;41384;51.418;7.286;2023-03-14T04:48:01;97302.22;;;9.11;100.00
55540;BME280;41384;51.418;7.286;2023-03-14T04:50:26;97294.56;;;9.15;100.00
55540;BME280;41384;51.418;7.286;2023-03-14T04:52:51;97281.69;;;9.13;100.00
55540;BME280;41384;51.418;7.286;2023-03-14T04:55:17;97274.00;;;8.96;100.00
55540;BME280;41384;51.418;7.286;2023-03-14T04:57:42;97272.94;;;8.97;100.00
55540;BME280;41384;51.418;7.286;2023-03-14T05:00:08;97272.13;;;8.86;100.00
55540;BME280;41384;51.418;7.286;2023-03-14T05:02:34;97285.56;;;8.95;100.00
55540;BME280;41384;51.418;7.286;2023-03-14T05:04:59;97270.78;;;8.84;100.00
55540;BME280;41384;51.418;7.286;2023-03-14T05:07:24;97272.34;;;8.74;100.00
55540;BME280;41384;51.418;7.286;2023-03-14T05:09:50;97286.28;;;8.80;100.00
55540;BME280;41384;51.418;7.286;2023-03-14T05:12:15;97295.91;;;9.17;100.00
55540;BME280;41384;51.418;7.286;2023-03-14T05:14:40;97281.34;;;8.89;100.00
55540;BME280;41384;51.418;7.286;2023-03-14T05:17:06;97289.78;;;9.01;100.00
55540;BME280;41384;51.418;7.286;2023-03-14T05:19:31;97286.66;;;9.04;100.00
55540;BME280;41384;51.418;7.286;2023-03-14T05:21:56;97271.38;;;9.07;100.00
55540;BME280;41384;51.418;7.286;2023-03-14T05:24:22;97263.75;;;8.95;100.00
55540;BME280;41384;51.418;7.286;2023-03-14T05:26:47;97259.22;;;8.85;100.00
55540;BME280;41384;51.418;7.286;2023-03-14T05:29:12;97243.63;;;8.68;100.00
55540;BME280;41384;51.418;7.286;2023-03-14T05:31:37;97246.06;;;8.80;100.00
55540;BME280;41384;51.418;7.286;2023-03-14T05:34:03;97252.19;;;9.01;100.00
55540;BME280;41384;51.418;7.286;2023-03-14T05:36:28;97240.34;;;9.09;100.00
55540;BME280;41384;51.418;7.286;2023-03-14T05:38:53;97242.97;;;8.98;100.00
55540;BME280;41384;51.418;7.286;2023-03-14T05:41:19;97237.72;;;9.09;100.00
55540;BME280;41384;51.418;7.286;2023-03-14T05:43:44;97226.44;;;9.13;100.00
55540;BME280;41384;51.418;7.286;2023-03-14T05:46:09;97221.69;;;9.15;100.00
55540;BME280;41384;51.418;7.286;2023-03-14T05:48:34;97222.47;;;9.11;100.00
55540;BME280;41384;51.418;7.286;2023-03-14T05:51:00;97210.13;;;9.22;100.00
55540;BME280;41384;51.418;7.286;2023-03-14T05:53:25;97216.16;;;9.12;100.00
55540;BME280;41384;51.418;7.286;2023-03-14T05:55:54;97217.47;;;9.09;100.00
55540;BME280;41384;51.418;7.286;2023-03-14T05:58:20;97212.47;;;9.18;100.00
55540;BME280;41384;51.418;7.286;2023-03-14T06:00:45;97211.94;;;9.16;100.00
55540;BME280;41384;51.418;7.286;2023-03-14T06:03:10;97209.81;;;9.13;100.00
55540;BME280;41384;51.418;7.286;2023-03-14T06:05:36;97212.22;;;9.09;100.00
55540;BME280;41384;51.418;7.286;2023-03-14T06:08:01;97207.19;;;9.13;100.00
55540;BME280;41384;51.418;7.286;2023-03-14T06:10:26;97220.09;;;9.14;100.00
55540;BME280;41384;51.418;7.286;2023-03-14T06:12:52;97205.59;;;9.07;100.00
55540;BME280;41384;51.418;7.286;2023-03-14T06:15:17;97213.00;;;9.20;100.00
55540;BME280;41384;51.418;7.286;2023-03-14T06:17:42;97204.31;;;9.14;100.00
55540;BME280;41384;51.418;7.286;2023-03-14T06:20:08;97218.00;;;9.16;100.00
55540;BME280;41384;51.418;7.286;2023-03-14T06:22:34;97214.09;;;9.29;100.00
55540;BME280;41384;51.418;7.286;2023-03-14T06:24:59;97221.41;;;9.22;100.00
55540;BME280;41384;51.418;7.286;2023-03-14T06:27:24;97207.75;;;9.25;100.00
55540;BME280;41384;51.418;7.286;2023-03-14T06:29:50;97220.91;;;9.25;100.00
55540;BME280;41384;51.418;7.286;2023-03-14T06:32:15;97224.59;;;9.24;100.00
55540;BME280;41384;51.418;7.286;2023-03-14T06:34:40;97224.84;;;9.23;100.00
55540;BME280;41384;51.418;7.286;2023-03-14T06:37:06;97222.22;;;9.28;100.00
55540;BME280;41384;51.418;7.286;2023-03-14T06:39:31;97223.56;;;9.30;100.00
55540;BME280;41384;51.418;7.286;2023-03-14T06:41:57;97233.03;;;9.31;100.00
55540;BME280;41384;51.418;7.286;2023-03-14T06:44:22;97228.56;;;9.37;100.00
55540;BME280;41384;51.418;7.286;2023-03-14T06:46:47;97225.41;;;9.30;100.00
55540;BME280;41384;51.418;7.286;2023-03-14T06:49:13;97233.31;;;9.40;100.00
55540;BME280;41384;51.418;7.286;2023-03-14T06:51:38;97234.88;;;9.41;100.00
55540;BME280;41384;51.418;7.286;2023-03-14T06:54:03;97226.72;;;9.38;100.00
55540;BME280;41384;51.418;7.286;2023-03-14T06:56:29;97231.19;;;9.42;100.00
55540;BME280;41384;51.418;7.286;2023-03-14T06:58:54;97233.03;;;9.37;100.00
55540;BME280;41384;51.418;7.286;2023-03-14T07:01:23;97236.22;;;9.39;100.00
55540;BME280;41384;51.418;7.286;2023-03-14T07:03:49;97236.75;;;9.46;100.00
55540;BME280;41384;51.418;7.286;2023-03-14T07:06:14;97242.53;;;9.38;100.00
55540;BME280;41384;51.418;7.286;2023-03-14T07:08:40;97233.81;;;9.42;100.00
55540;BME280;41384;51.418;7.286;2023-03-14T07:11:07;97235.69;;;9.47;100.00
55540;BME280;41384;51.418;7.286;2023-03-14T07:13:32;97231.19;;;9.42;100.00
55540;BME280;41384;51.418;7.286;2023-03-14T07:15:57;97246.22;;;9.42;100.00
55540;BME280;41384;51.418;7.286;2023-03-14T07:18:22;97243.84;;;9.61;100.00
55540;BME280;41384;51.418;7.286;2023-03-14T07:20:48;97238.84;;;9.59;100.00
55540;BME280;41384;51.418;7.286;2023-03-14T07:23:13;97240.97;;;9.57;100.00
55540;BME280;41384;51.418;7.286;2023-03-14T07:25:38;97230.16;;;9.48;100.00
55540;BME280;41384;51.418;7.286;2023-03-14T07:28:04;97240.69;;;9.54;100.00
55540;BME280;41384;51.418;7.286;2023-03-14T07:30:29;97245.16;;;9.58;100.00
55540;BME280;41384;51.418;7.286;2023-03-14T07:32:54;97242.53;;;9.43;100.00
55540;BME280;41384;51.418;7.286;2023-03-14T07:35:20;97244.13;;;9.54;100.00
55540;BME280;41384;51.418;7.286;2023-03-14T07:37:45;97241.47;;;9.59;100.00
55540;BME280;41384;51.418;7.286;2023-03-14T07:40:10;97233.59;;;9.59;100.00
55540;BME280;41384;51.418;7.286;2023-03-14T07:42:39;97246.47;;;9.61;100.00
55540;BME280;41384;51.418;7.286;2023-03-14T07:45:05;97247.00;;;9.68;100.00
55540;BME280;41384;51.418;7.286;2023-03-14T07:47:31;97247.03;;;9.73;100.00
55540;BME280;41384;51.418;7.286;2023-03-14T07:49:56;97251.50;;;9.73;100.00
55540;BME280;41384;51.418;7.286;2023-03-14T07:52:21;97259.91;;;9.75;100.00
55540;BME280;41384;51.418;7.286;2023-03-14T07:54:46;97257.28;;;9.75;100.00
55540;BME280;41384;51.418;7.286;2023-03-14T07:57:12;97258.88;;;9.81;100.00
55540;BME280;41384;51.418;7.286;2023-03-14T07:59:37;97267.03;;;9.85;100.00
55540;BME280;41384;51.418;7.286;2023-03-14T08:02:02;97257.78;;;9.98;100.00
55540;BME280;41384;51.418;7.286;2023-03-14T08:04:30;97251.75;;;9.92;100.00
55540;BME280;41384;51.418;7.286;2023-03-14T08:06:55;97255.97;;;9.88;100.00
55540;BME280;41384;51.418;7.286;2023-03-14T08:09:21;97259.38;;;9.88;100.00
55540;BME280;41384;51.418;7.286;2023-03-14T08:11:46;97260.44;;;9.82;100.00
55540;BME280;41384;51.418;7.286;2023-03-14T08:14:11;97270.97;;;9.72;100.00
55540;BME280;41384;51.418;7.286;2023-03-14T08:16:36;97259.63;;;9.71;100.00
55540;BME280;41384;51.418;7.286;2023-03-14T08:19:02;97257.03;;;9.87;100.00
55540;BME280;41384;51.418;7.286;2023-03-14T08:21:27;97259.91;;;9.96;100.00
55540;BME280;41384;51.418;7.286;2023-03-14T08:23:52;97252.28;;;9.89;100.00
55540;BME280;41384;51.418;7.286;2023-03-14T08:26:18;97265.69;;;10.03;100.00
55540;BME280;41384;51.418;7.286;2023-03-14T08:28:43;97256.72;;;10.04;100.00
55540;BME280;41384;51.418;7.286;2023-03-14T08:31:08;97256.72;;;10.14;100.00
55540;BME280;41384;51.418;7.286;2023-03-14T08:33:33;97270.16;;;10.18;100.00
55540;BME280;41384;51.418;7.286;2023-03-14T08:36:00;97263.84;;;10.19;100.00
55540;BME280;41384;51.418;7.286;2023-03-14T08:38:25;97248.06;;;10.03;100.00
55540;BME280;41384;51.418;7.286;2023-03-14T08:41:01;97263.59;;;10.00;100.00
55540;BME280;41384;51.418;7.286;2023-03-14T08:43:28;97270.97;;;9.92;100.00
55540;BME280;41384;51.418;7.286;2023-03-14T08:45:53;97268.59;;;10.06;100.00
55540;BME280;41384;51.418;7.286;2023-03-14T08:48:18;97274.66;;;10.12;100.00
55540;BME280;41384;51.418;7.286;2023-03-14T08:50:44;97272.56;;;10.19;100.00
55540;BME280;41384;51.418;7.286;2023-03-14T08:53:10;97268.84;;;10.10;100.00
55540;BME280;41384;51.418;7.286;2023-03-14T08:55:35;97272.28;;;10.11;100.00
55540;BME280;41384;51.418;7.286;2023-03-14T08:58:00;97276.47;;;10.27;100.00
55540;BME280;41384;51.418;7.286;2023-03-14T09:00:26;97281.22;;;10.20;100.00
55540;BME280;41384;51.418;7.286;2023-03-14T09:02:51;97273.34;;;10.15;100.00
55540;BME280;41384;51.418;7.286;2023-03-14T09:05:16;97279.66;;;10.40;100.00
55540;BME280;41384;51.418;7.286;2023-03-14T09:07:44;97272.75;;;10.49;100.00
55540;BME280;41384;51.418;7.286;2023-03-14T09:10:10;97269.88;;;10.50;100.00
55540;BME280;41384;51.418;7.286;2023-03-14T09:12:35;97275.94;;;10.46;100.00
55540;BME280;41384;51.418;7.286;2023-03-14T09:15:01;97286.50;;;10.41;100.00
55540;BME280;41384;51.418;7.286;2023-03-14T09:17:26;97286.75;;;10.34;100.00
55540;BME280;41384;51.418;7.286;2023-03-14T09:19:52;97288.88;;;10.32;100.00
55540;BME280;41384;51.418;7.286;2023-03-14T09:22:17;97309.69;;;10.33;100.00
55540;BME280;41384;51.418;7.286;2023-03-14T09:24:42;97300.47;;;10.31;100.00
55540;BME280;41384;51.418;7.286;2023-03-14T09:27:08;97318.94;;;10.20;100.00
55540;BME280;41384;51.418;7.286;2023-03-14T09:29:33;97322.09;;;10.07;100.00
55540;BME280;41384;51.418;7.286;2023-03-14T09:31:59;97330.00;;;10.07;100.00
55540;BME280;41384;51.418;7.286;2023-03-14T09:34:24;97337.91;;;10.02;100.00
55540;BME280;41384;51.418;7.286;2023-03-14T09:36:50;97341.88;;;10.15;100.00
55540;BME280;41384;51.418;7.286;2023-03-14T09:39:15;97349.50;;;10.11;100.00
55540;BME280;41384;51.418;7.286;2023-03-14T09:41:44;97360.84;;;9.86;100.00
55540;BME280;41384;51.418;7.286;2023-03-14T09:44:28;97360.28;;;9.73;100.00
55540;BME280;41384;51.418;7.286;2023-03-14T09:46:58;97397.41;;;9.67;100.00
55540;BME280;41384;51.418;7.286;2023-03-14T09:49:42;97426.06;;;9.53;100.00
55540;BME280;41384;51.418;7.286;2023-03-14T09:52:13;97436.34;;;9.49;100.00
55540;BME280;41384;51.418;7.286;2023-03-14T09:54:57;97434.69;;;9.32;100.00
55540;BME280;41384;51.418;7.286;2023-03-14T09:57:25;97436.06;;;8.97;100.00
55540;BME280;41384;51.418;7.286;2023-03-14T09:59:52;97459.63;;;9.19;100.00
55540;BME280;41384;51.418;7.286;2023-03-14T10:02:21;97462.16;;;9.04;100.00
55540;BME280;41384;51.418;7.286;2023-03-14T10:04:48;97466.13;;;9.07;100.00
55540;BME280;41384;51.418;7.286;2023-03-14T10:07:28;97484.28;;;9.08;100.00
55540;BME280;41384;51.418;7.286;2023-03-14T10:09:54;97499.56;;;9.11;100.00
55540;BME280;41384;51.418;7.286;2023-03-14T10:12:19;97506.50;;;9.23;100.00
55540;BME280;41384;51.418;7.286;2023-03-14T10:14:48;97525.28;;;8.66;100.00
55540;BME280;41384;51.418;7.286;2023-03-14T10:17:14;97538.72;;;8.70;100.00
55540;BME280;41384;51.418;7.286;2023-03-14T10:19:59;97534.88;;;8.83;100.00
55540;BME280;41384;51.418;7.286;2023-03-14T10:22:29;97553.94;;;8.68;100.00
55540;BME280;41384;51.418;7.286;2023-03-14T10:25:06;97568.78;;;8.79;100.00
55540;BME280;41384;51.418;7.286;2023-03-14T10:27:34;97563.94;;;8.98;100.00
55540;BME280;41384;51.418;7.286;2023-03-14T10:30:03;97569.16;;;8.93;100.00
55540;BME280;41384;51.418;7.286;2023-03-14T10:32:34;97584.88;;;9.15;100.00
55540;BME280;41384;51.418;7.286;2023-03-14T10:37:49;97600.03;;;9.03;100.00
55540;BME280;41384;51.418;7.286;2023-03-14T10:40:15;97609.91;;;8.85;100.00
55540;BME280;41384;51.418;7.286;2023-03-14T10:42:43;97624.84;;;9.12;100.00
55540;BME280;41384;51.418;7.286;2023-03-14T10:45:38;97637.78;;;8.86;100.00
55540;BME280;41384;51.418;7.286;2023-03-14T10:48:34;97651.59;;;8.49;100.00
55540;BME280;41384;51.418;7.286;2023-03-14T10:53:25;97674.72;;;8.30;100.00
55540;BME280;41384;51.418;7.286;2023-03-14T10:55:51;97688.28;;;8.22;100.00
55540;BME280;41384;51.418;7.286;2023-03-14T10:58:28;97723.69;;;8.36;100.00
55540;BME280;41384;51.418;7.286;2023-03-14T11:01:09;97738.41;;;8.54;100.00
55540;BME280;41384;51.418;7.286;2023-03-14T11:03:43;97734.34;;;8.46;100.00
55540;BME280;41384;51.418;7.286;2023-03-14T11:06:25;97752.38;;;8.55;100.00
55540;BME280;41384;51.418;7.286;2023-03-14T11:09:41;97757.31;;;8.34;100.00
55540;BME280;41384;51.418;7.286;2023-03-14T11:11:46;97784.53;;;8.45;100.00
55540;BME280;41384;51.418;7.286;2023-03-14T11:14:36;97801.44;;;8.32;100.00
55540;BME280;41384;51.418;7.286;2023-03-14T11:17:20;97804.69;;;8.39;100.00
55540;BME280;41384;51.418;7.286;2023-03-14T11:22:41;97845.22;;;7.75;100.00
55540;BME280;41384;51.418;7.286;2023-03-14T11:25:26;97862.56;;;7.76;100.00
55540;BME280;41384;51.418;7.286;2023-03-14T11:28:07;97854.97;;;8.09;100.00
55540;BME280;41384;51.418;7.286;2023-03-14T11:30:44;97878.16;;;8.12;100.00
55540;BME280;41384;51.418;7.286;2023-03-14T11:33:27;97871.69;;;8.02;100.00
55540;BME280;41384;51.418;7.286;2023-03-14T11:36:07;97885.00;;;8.30;100.00
55540;BME280;41384;51.418;7.286;2023-03-14T11:38:38;97898.28;;;8.06;100.00
55540;BME280;41384;51.418;7.286;2023-03-14T11:41:11;97904.19;;;8.13;100.00
55540;BME280;41384;51.418;7.286;2023-03-14T11:43:39;97913.97;;;7.72;100.00
55540;BME280;41384;51.418;7.286;2023-03-14T11:46:22;97933.66;;;7.86;97.39
55540;BME280;41384;51.418;7.286;2023-03-14T11:49:08;97949.50;;;7.63;98.21
55540;BME280;41384;51.418;7.286;2023-03-14T11:51:39;97961.91;;;7.79;93.38
55540;BME280;41384;51.418;7.286;2023-03-14T11:54:25;97964.38;;;7.86;96.59
55540;BME280;41384;51.418;7.286;2023-03-14T12:03:21;97976.34;;;7.65;92.16
55540;BME280;41384;51.418;7.286;2023-03-14T12:08:55;97997.44;;;7.70;90.22
55540;BME280;41384;51.418;7.286;2023-03-14T12:11:33;98009.56;;;7.59;92.68
55540;BME280;41384;51.418;7.286;2023-03-14T12:14:01;98022.44;;;7.72;91.97
55540;BME280;41384;51.418;7.286;2023-03-14T12:16:38;98033.53;;;7.39;92.84
55540;BME280;41384;51.418;7.286;2023-03-14T12:19:37;98036.72;;;7.65;92.34
55540;BME280;41384;51.418;7.286;2023-03-14T12:22:23;98044.84;;;7.15;92.76
55540;BME280;41384;51.418;7.286;2023-03-14T12:24:53;98049.97;;;7.22;93.69
55540;BME280;41384;51.418;7.286;2023-03-14T12:28:02;98057.53;;;7.54;92.69
55540;BME280;41384;51.418;7.286;2023-03-14T12:30:39;98069.47;;;7.62;93.50
55540;BME280;41384;51.418;7.286;2023-03-14T12:35:50;98097.78;;;7.48;95.49
55540;BME280;41384;51.418;7.286;2023-03-14T12:38:37;98097.66;;;7.91;93.25
55540;BME280;41384;51.418;7.286;2023-03-14T12:41:29;98108.28;;;7.84;94.88
55540;BME280;41384;51.418;7.286;2023-03-14T12:44:37;98128.25;;;7.85;98.94
55540;BME280;41384;51.418;7.286;2023-03-14T12:49:53;98124.41;;;7.64;98.77
55540;BME280;41384;51.418;7.286;2023-03-14T12:52:36;98131.25;;;7.65;98.41
55540;BME280;41384;51.418;7.286;2023-03-14T12:55:06;98137.75;;;8.10;96.61
55540;BME280;41384;51.418;7.286;2023-03-14T12:57:42;98150.75;;;8.16;97.76
55540;BME280;41384;51.418;7.286;2023-03-14T13:00:22;98148.47;;;8.20;95.57
55540;BME280;41384;51.418;7.286;2023-03-14T13:02:49;98160.34;;;8.11;93.92
55540;BME280;41384;51.418;7.286;2023-03-14T13:05:16;98163.97;;;8.33;93.50
55540;BME280;41384;51.418;7.286;2023-03-14T13:15:11;98205.81;;;7.64;100.00
55540;BME280;41384;51.418;7.286;2023-03-14T13:17:40;98231.53;;;7.31;100.00
55540;BME280;41384;51.418;7.286;2023-03-14T13:20:36;98237.00;;;6.80;100.00
55540;BME280;41384;51.418;7.286;2023-03-14T13:23:00;98260.78;;;6.67;100.00
55540;BME280;41384;51.418;7.286;2023-03-14T13:25:30;98259.53;;;6.88;100.00
55540;BME280;41384;51.418;7.286;2023-03-14T13:27:55;98267.81;;;6.48;100.00
55540;BME280;41384;51.418;7.286;2023-03-14T13:30:24;98274.94;;;6.40;100.00
55540;BME280;41384;51.418;7.286;2023-03-14T13:32:50;98271.19;;;6.74;100.00
55540;BME280;41384;51.418;7.286;2023-03-14T13:37:51;98288.38;;;7.07;100.00
55540;BME280;41384;51.418;7.286;2023-03-14T13:40:20;98285.19;;;7.35;100.00
55540;BME280;41384;51.418;7.286;2023-03-14T13:42:45;98302.16;;;7.33;100.00
55540;BME280;41384;51.418;7.286;2023-03-14T13:45:13;98306.56;;;7.20;100.00